sensor_id;sensor_type;location;lat;lon;timestamp;P1;durP1;ratioP1;P2;durP2;ratioP2
46308;SDS011;32037;50.820;6.494;2024-02-28T00:01:55;11.68;;;9.57;;
46308;SDS011;32037;50.820;6.494;2024-02-28T00:04:25;11.82;;;9.52;;
46308;SDS011;32037;50.820;6.494;2024-02-28T00:06:55;10.95;;;8.50;;
46308;SDS011;32037;50.820;6.494;2024-02-28T00:09:25;12.35;;;9.88;;
46308;SDS011;32037;50.820;6.494;2024-02-28T00:11:55;12.73;;;10.10;;
46308;SDS011;32037;50.820;6.494;2024-02-28T00:14:26;10.63;;;8.30;;
46308;SDS011;32037;50.820;6.494;2024-02-28T00:16:55;10.30;;;8.60;;
46308;SDS011;32037;50.820;6.494;2024-02-28T00:19:23;16.02;;;11.68;;
46308;SDS011;32037;50.820;6.494;2024-02-28T00:21:55;10.68;;;9.57;;
46308;SDS011;32037;50.820;6.494;2024-02-28T00:24:23;15.30;;;10.90;;
46308;SDS011;32037;50.820;6.494;2024-02-28T00:26:54;10.60;;;9.38;;
46308;SDS011;32037;50.820;6.494;2024-02-28T00:29:23;10.45;;;9.05;;
46308;SDS011;32037;50.820;6.494;2024-02-28T00:31:56;14.80;;;10.70;;
46308;SDS011;32037;50.820;6.494;2024-02-28T00:34:25;12.25;;;10.38;;
46308;SDS011;32037;50.820;6.494;2024-02-28T00:36:53;11.77;;;8.98;;
46308;SDS011;32037;50.820;6.494;2024-02-28T00:39:23;12.93;;;9.40;;
46308;SDS011;32037;50.820;6.494;2024-02-28T00:41:55;12.10;;;9.55;;
46308;SDS011;32037;50.820;6.494;2024-02-28T00:44:25;12.75;;;8.75;;
46308;SDS011;32037;50.820;6.494;2024-02-28T00:46:56;16.35;;;11.23;;
46308;SDS011;32037;50.820;6.494;2024-02-28T00:49:25;13.30;;;10.00;;
46308;SDS011;32037;50.820;6.494;2024-02-28T00:51:55;12.27;;;9.48;;
46308;SDS011;32037;50.820;6.494;2024-02-28T00:54:23;11.70;;;8.80;;
46308;SDS011;32037;50.820;6.494;2024-02-28T00:56:53;14.70;;;9.43;;
46308;SDS011;32037;50.820;6.494;2024-02-28T00:59:25;14.23;;;10.60;;
46308;SDS011;32037;50.820;6.494;2024-02-28T01:01:56;12.27;;;9.63;;
46308;SDS011;32037;50.820;6.494;2024-02-28T01:04:25;14.18;;;9.60;;
46308;SDS011;32037;50.820;6.494;2024-02-28T01:06:55;15.02;;;11.20;;
46308;SDS011;32037;50.820;6.494;2024-02-28T01:09:25;17.53;;;11.23;;
46308;SDS011;32037;50.820;6.494;2024-02-28T01:11:53;12.82;;;10.27;;
46308;SDS011;32037;50.820;6.494;2024-02-28T01:14:23;11.70;;;9.90;;
46308;SDS011;32037;50.820;6.494;2024-02-28T01:16:56;12.48;;;9.57;;
46308;SDS011;32037;50.820;6.494;2024-02-28T01:19:24;14.98;;;10.50;;
46308;SDS011;32037;50.820;6.494;2024-02-28T01:21:53;11.02;;;8.75;;
46308;SDS011;32037;50.820;6.494;2024-02-28T01:24:24;16.73;;;11.98;;
46308;SDS011;32037;50.820;6.494;2024-02-28T01:26:55;12.45;;;9.40;;
46308;SDS011;32037;50.820;6.494;2024-02-28T01:29:23;14.98;;;9.70;;
46308;SDS011;32037;50.820;6.494;2024-02-28T01:31:56;12.30;;;9.90;;
46308;SDS011;32037;50.820;6.494;2024-02-28T01:34:25;13.07;;;10.00;;
46308;SDS011;32037;50.820;6.494;2024-02-28T01:36:55;13.70;;;9.18;;
46308;SDS011;32037;50.820;6.494;2024-02-28T01:39:25;13.05;;;9.75;;
46308;SDS011;32037;50.820;6.494;2024-02-28T01:41:55;14.55;;;9.50;;
46308;SDS011;32037;50.820;6.494;2024-02-28T01:44:25;15.10;;;9.43;;
46308;SDS011;32037;50.820;6.494;2024-02-28T01:46:56;12.40;;;9.65;;
46308;SDS011;32037;50.820;6.494;2024-02-28T01:49:25;14.00;;;10.45;;
46308;SDS011;32037;50.820;6.494;2024-02-28T01:51:55;14.65;;;10.20;;
46308;SDS011;32037;50.820;6.494;2024-02-28T01:54:25;12.02;;;9.40;;
46308;SDS011;32037;50.820;6.494;2024-02-28T01:56:58;11.88;;;9.13;;
46308;SDS011;32037;50.820;6.494;2024-02-28T01:59:28;11.93;;;8.82;;
46308;SDS011;32037;50.820;6.494;2024-02-28T02:02:01;11.77;;;8.60;;
46308;SDS011;32037;50.820;6.494;2024-02-28T02:04:30;15.38;;;11.20;;
46308;SDS011;32037;50.820;6.494;2024-02-28T02:07:00;12.40;;;8.32;;
46308;SDS011;32037;50.820;6.494;2024-02-28T02:09:28;12.93;;;8.80;;
46308;SDS011;32037;50.820;6.494;2024-02-28T02:11:56;10.98;;;8.32;;
46308;SDS011;32037;50.820;6.494;2024-02-28T02:14:24;13.35;;;9.90;;
46308;SDS011;32037;50.820;6.494;2024-02-28T02:16:55;13.20;;;9.20;;
46308;SDS011;32037;50.820;6.494;2024-02-28T02:19:26;12.60;;;8.98;;
46308;SDS011;32037;50.820;6.494;2024-02-28T02:21:56;10.02;;;8.90;;
46308;SDS011;32037;50.820;6.494;2024-02-28T02:24:27;13.52;;;9.75;;
46308;SDS011;32037;50.820;6.494;2024-02-28T02:26:56;13.30;;;8.90;;
46308;SDS011;32037;50.820;6.494;2024-02-28T02:29:25;13.03;;;9.10;;
46308;SDS011;32037;50.820;6.494;2024-02-28T02:31:55;11.05;;;8.95;;
46308;SDS011;32037;50.820;6.494;2024-02-28T02:34:25;12.98;;;9.65;;
46308;SDS011;32037;50.820;6.494;2024-02-28T02:36:55;13.45;;;10.00;;
46308;SDS011;32037;50.820;6.494;2024-02-28T02:39:25;10.93;;;8.60;;
46308;SDS011;32037;50.820;6.494;2024-02-28T02:41:56;13.32;;;9.48;;
46308;SDS011;32037;50.820;6.494;2024-02-28T02:44:24;12.30;;;8.80;;
46308;SDS011;32037;50.820;6.494;2024-02-28T02:46:52;10.90;;;8.50;;
46308;SDS011;32037;50.820;6.494;2024-02-28T02:49:23;11.82;;;8.65;;
46308;SDS011;32037;50.820;6.494;2024-02-28T02:51:54;11.35;;;8.90;;
46308;SDS011;32037;50.820;6.494;2024-02-28T02:54:25;11.90;;;9.00;;
46308;SDS011;32037;50.820;6.494;2024-02-28T02:56:56;11.77;;;8.93;;
46308;SDS011;32037;50.820;6.494;2024-02-28T02:59:24;13.20;;;8.82;;
46308;SDS011;32037;50.820;6.494;2024-02-28T03:01:53;12.45;;;9.07;;
46308;SDS011;32037;50.820;6.494;2024-02-28T03:04:21;12.35;;;9.13;;
46308;SDS011;32037;50.820;6.494;2024-02-28T03:06:51;12.65;;;8.40;;
46308;SDS011;32037;50.820;6.494;2024-02-28T03:09:23;11.98;;;8.65;;
46308;SDS011;32037;50.820;6.494;2024-02-28T03:11:54;15.52;;;10.90;;
46308;SDS011;32037;50.820;6.494;2024-02-28T03:14:25;11.43;;;8.88;;
46308;SDS011;32037;50.820;6.494;2024-02-28T03:16:55;13.13;;;10.43;;
46308;SDS011;32037;50.820;6.494;2024-02-28T03:19:23;13.02;;;9.27;;
46308;SDS011;32037;50.820;6.494;2024-02-28T03:21:52;12.35;;;8.73;;
46308;SDS011;32037;50.820;6.494;2024-02-28T03:24:23;11.48;;;8.40;;
46308;SDS011;32037;50.820;6.494;2024-02-28T03:26:56;12.30;;;9.15;;
46308;SDS011;32037;50.820;6.494;2024-02-28T03:29:25;11.75;;;8.20;;
46308;SDS011;32037;50.820;6.494;2024-02-28T03:31:54;11.95;;;8.40;;
46308;SDS011;32037;50.820;6.494;2024-02-28T03:34:25;12.50;;;9.23;;
46308;SDS011;32037;50.820;6.494;2024-02-28T03:36:55;13.23;;;8.65;;
46308;SDS011;32037;50.820;6.494;2024-02-28T03:39:25;12.52;;;9.23;;
46308;SDS011;32037;50.820;6.494;2024-02-28T03:41:54;10.73;;;8.20;;
46308;SDS011;32037;50.820;6.494;2024-02-28T03:44:26;11.43;;;8.85;;
46308;SDS011;32037;50.820;6.494;2024-02-28T03:46:55;11.48;;;7.90;;
46308;SDS011;32037;50.820;6.494;2024-02-28T03:49:25;11.20;;;10.00;;
46308;SDS011;32037;50.820;6.494;2024-02-28T03:51:55;9.30;;;7.32;;
46308;SDS011;32037;50.820;6.494;2024-02-28T03:54:23;10.77;;;8.68;;
46308;SDS011;32037;50.820;6.494;2024-02-28T03:56:52;9.98;;;7.57;;
46308;SDS011;32037;50.820;6.494;2024-02-28T03:59:20;12.27;;;9.35;;
46308;SDS011;32037;50.820;6.494;2024-02-28T04:01:53;11.18;;;8.73;;
46308;SDS011;32037;50.820;6.494;2024-02-28T04:04:25;11.95;;;8.50;;
46308;SDS011;32037;50.820;6.494;2024-02-28T04:06:54;10.52;;;8.40;;
46308;SDS011;32037;50.820;6.494;2024-02-28T04:09:25;10.77;;;8.48;;
46308;SDS011;32037;50.820;6.494;2024-02-28T04:11:55;10.20;;;8.05;;
46308;SDS011;32037;50.820;6.494;2024-02-28T04:14:23;8.80;;;7.65;;
46308;SDS011;32037;50.820;6.494;2024-02-28T04:16:53;9.52;;;7.47;;
46308;SDS011;32037;50.820;6.494;2024-02-28T04:19:24;8.82;;;7.28;;
46308;SDS011;32037;50.820;6.494;2024-02-28T04:21:53;9.23;;;6.78;;
46308;SDS011;32037;50.820;6.494;2024-02-28T04:24:25;8.68;;;7.28;;
46308;SDS011;32037;50.820;6.494;2024-02-28T04:26:55;9.48;;;8.05;;
46308;SDS011;32037;50.820;6.494;2024-02-28T04:29:24;9.27;;;7.95;;
46308;SDS011;32037;50.820;6.494;2024-02-28T04:31:56;9.35;;;8.20;;
46308;SDS011;32037;50.820;6.494;2024-02-28T04:34:25;9.13;;;7.18;;
46308;SDS011;32037;50.820;6.494;2024-02-28T04:36:55;8.00;;;6.50;;
46308;SDS011;32037;50.820;6.494;2024-02-28T04:39:25;10.00;;;7.60;;
46308;SDS011;32037;50.820;6.494;2024-02-28T04:41:55;7.78;;;6.97;;
46308;SDS011;32037;50.820;6.494;2024-02-28T04:44:25;7.93;;;6.53;;
46308;SDS011;32037;50.820;6.494;2024-02-28T04:46:56;9.25;;;7.13;;
46308;SDS011;32037;50.820;6.494;2024-02-28T04:49:25;8.10;;;6.20;;
46308;SDS011;32037;50.820;6.494;2024-02-28T04:51:55;7.78;;;6.97;;
46308;SDS011;32037;50.820;6.494;2024-02-28T04:54:23;7.85;;;6.90;;
46308;SDS011;32037;50.820;6.494;2024-02-28T04:56:52;9.60;;;7.57;;
46308;SDS011;32037;50.820;6.494;2024-02-28T04:59:22;9.50;;;7.60;;
46308;SDS011;32037;50.820;6.494;2024-02-28T05:01:51;8.15;;;6.57;;
46308;SDS011;32037;50.820;6.494;2024-02-28T05:04:24;9.63;;;7.68;;
46308;SDS011;32037;50.820;6.494;2024-02-28T05:06:54;8.40;;;6.55;;
46308;SDS011;32037;50.820;6.494;2024-02-28T05:09:25;8.63;;;6.57;;
46308;SDS011;32037;50.820;6.494;2024-02-28T05:11:55;10.82;;;8.55;;
46308;SDS011;32037;50.820;6.494;2024-02-28T05:14:25;12.45;;;9.45;;
46308;SDS011;32037;50.820;6.494;2024-02-28T05:16:55;10.20;;;7.60;;
46308;SDS011;32037;50.820;6.494;2024-02-28T05:19:26;11.43;;;7.45;;
46308;SDS011;32037;50.820;6.494;2024-02-28T05:21:54;11.05;;;7.70;;
46308;SDS011;32037;50.820;6.494;2024-02-28T05:24:25;12.05;;;8.68;;
46308;SDS011;32037;50.820;6.494;2024-02-28T05:26:53;9.18;;;7.43;;
46308;SDS011;32037;50.820;6.494;2024-02-28T05:29:24;12.18;;;7.63;;
46308;SDS011;32037;50.820;6.494;2024-02-28T05:31:55;10.23;;;7.30;;
46308;SDS011;32037;50.820;6.494;2024-02-28T05:34:26;12.40;;;9.57;;
46308;SDS011;32037;50.820;6.494;2024-02-28T05:36:54;15.68;;;10.10;;
46308;SDS011;32037;50.820;6.494;2024-02-28T05:39:22;12.65;;;9.82;;
46308;SDS011;32037;50.820;6.494;2024-02-28T05:41:54;12.52;;;8.18;;
46308;SDS011;32037;50.820;6.494;2024-02-28T05:44:24;10.75;;;7.75;;
46308;SDS011;32037;50.820;6.494;2024-02-28T05:46:55;12.55;;;9.20;;
46308;SDS011;32037;50.820;6.494;2024-02-28T05:49:26;10.30;;;7.70;;
46308;SDS011;32037;50.820;6.494;2024-02-28T05:51:55;12.30;;;9.18;;
46308;SDS011;32037;50.820;6.494;2024-02-28T05:54:24;10.35;;;7.38;;
46308;SDS011;32037;50.820;6.494;2024-02-28T05:56:55;9.80;;;7.53;;
46308;SDS011;32037;50.820;6.494;2024-02-28T05:59:25;11.40;;;7.50;;
46308;SDS011;32037;50.820;6.494;2024-02-28T06:01:55;10.55;;;6.88;;
46308;SDS011;32037;50.820;6.494;2024-02-28T06:04:24;9.65;;;7.40;;
46308;SDS011;32037;50.820;6.494;2024-02-28T06:06:56;11.15;;;9.20;;
46308;SDS011;32037;50.820;6.494;2024-02-28T06:09:25;8.55;;;6.53;;
46308;SDS011;32037;50.820;6.494;2024-02-28T06:11:53;9.20;;;7.57;;
46308;SDS011;32037;50.820;6.494;2024-02-28T06:14:25;9.23;;;7.07;;
46308;SDS011;32037;50.820;6.494;2024-02-28T06:16:55;14.10;;;9.93;;
46308;SDS011;32037;50.820;6.494;2024-02-28T06:19:25;12.48;;;8.95;;
46308;SDS011;32037;50.820;6.494;2024-02-28T06:21:53;11.88;;;9.23;;
46308;SDS011;32037;50.820;6.494;2024-02-28T06:24:26;11.98;;;8.20;;
46308;SDS011;32037;50.820;6.494;2024-02-28T06:26:54;13.60;;;8.75;;
46308;SDS011;32037;50.820;6.494;2024-02-28T06:29:25;11.38;;;7.95;;
46308;SDS011;32037;50.820;6.494;2024-02-28T06:31:55;11.57;;;8.90;;
46308;SDS011;32037;50.820;6.494;2024-02-28T06:34:25;11.10;;;8.38;;
46308;SDS011;32037;50.820;6.494;2024-02-28T06:36:54;11.43;;;8.15;;
46308;SDS011;32037;50.820;6.494;2024-02-28T06:39:22;11.48;;;8.07;;
46308;SDS011;32037;50.820;6.494;2024-02-28T06:41:51;9.07;;;6.72;;
46308;SDS011;32037;50.820;6.494;2024-02-28T06:44:23;11.73;;;8.48;;
46308;SDS011;32037;50.820;6.494;2024-02-28T06:46:55;14.38;;;8.75;;
46308;SDS011;32037;50.820;6.494;2024-02-28T06:49:23;11.98;;;8.35;;
46308;SDS011;32037;50.820;6.494;2024-02-28T06:51:52;10.07;;;7.10;;
46308;SDS011;32037;50.820;6.494;2024-02-28T06:54:24;10.30;;;8.38;;
46308;SDS011;32037;50.820;6.494;2024-02-28T06:56:54;10.38;;;7.50;;
46308;SDS011;32037;50.820;6.494;2024-02-28T06:59:24;10.05;;;7.50;;
46308;SDS011;32037;50.820;6.494;2024-02-28T07:01:55;9.07;;;6.60;;
46308;SDS011;32037;50.820;6.494;2024-02-28T07:04:25;10.77;;;7.25;;
46308;SDS011;32037;50.820;6.494;2024-02-28T07:06:53;10.57;;;7.28;;
46308;SDS011;32037;50.820;6.494;2024-02-28T07:09:25;14.02;;;9.80;;
46308;SDS011;32037;50.820;6.494;2024-02-28T07:11:58;10.23;;;7.32;;
46308;SDS011;32037;50.820;6.494;2024-02-28T07:14:28;8.95;;;6.90;;
46308;SDS011;32037;50.820;6.494;2024-02-28T07:16:59;12.55;;;8.05;;
46308;SDS011;32037;50.820;6.494;2024-02-28T07:19:28;9.93;;;6.60;;
46308;SDS011;32037;50.820;6.494;2024-02-28T07:21:57;8.55;;;6.50;;
46308;SDS011;32037;50.820;6.494;2024-02-28T07:24:25;11.15;;;8.45;;
46308;SDS011;32037;50.820;6.494;2024-02-28T07:26:53;9.32;;;6.75;;
46308;SDS011;32037;50.820;6.494;2024-02-28T07:29:24;10.80;;;7.13;;
46308;SDS011;32037;50.820;6.494;2024-02-28T07:31:55;9.95;;;7.38;;
46308;SDS011;32037;50.820;6.494;2024-02-28T07:34:25;8.48;;;6.50;;
46308;SDS011;32037;50.820;6.494;2024-02-28T07:36:55;8.45;;;6.18;;
46308;SDS011;32037;50.820;6.494;2024-02-28T07:39:24;6.72;;;5.97;;
46308;SDS011;32037;50.820;6.494;2024-02-28T07:41:55;9.65;;;6.85;;
46308;SDS011;32037;50.820;6.494;2024-02-28T07:44:26;10.13;;;7.20;;
46308;SDS011;32037;50.820;6.494;2024-02-28T07:47:00;9.77;;;6.45;;
46308;SDS011;32037;50.820;6.494;2024-02-28T07:49:29;9.32;;;7.22;;
46308;SDS011;32037;50.820;6.494;2024-02-28T07:51:59;8.63;;;6.32;;
46308;SDS011;32037;50.820;6.494;2024-02-28T07:54:27;8.10;;;5.97;;
46308;SDS011;32037;50.820;6.494;2024-02-28T07:56:55;7.10;;;6.32;;
46308;SDS011;32037;50.820;6.494;2024-02-28T07:59:23;10.38;;;7.10;;
46308;SDS011;32037;50.820;6.494;2024-02-28T08:01:53;10.65;;;6.90;;
46308;SDS011;32037;50.820;6.494;2024-02-28T08:04:25;8.85;;;6.35;;
46308;SDS011;32037;50.820;6.494;2024-02-28T08:06:53;10.77;;;7.35;;
46308;SDS011;32037;50.820;6.494;2024-02-28T08:09:25;6.90;;;6.00;;
46308;SDS011;32037;50.820;6.494;2024-02-28T08:11:54;9.68;;;7.18;;
46308;SDS011;32037;50.820;6.494;2024-02-28T08:14:24;7.45;;;5.82;;
46308;SDS011;32037;50.820;6.494;2024-02-28T08:16:53;8.68;;;6.78;;
46308;SDS011;32037;50.820;6.494;2024-02-28T08:19:21;8.57;;;6.90;;
46308;SDS011;32037;50.820;6.494;2024-02-28T08:21:53;10.48;;;7.13;;
46308;SDS011;32037;50.820;6.494;2024-02-28T08:24:23;8.23;;;6.25;;
46308;SDS011;32037;50.820;6.494;2024-02-28T08:26:53;8.77;;;6.93;;
46308;SDS011;32037;50.820;6.494;2024-02-28T08:29:22;7.57;;;5.68;;
46308;SDS011;32037;50.820;6.494;2024-02-28T08:31:56;7.07;;;5.85;;
46308;SDS011;32037;50.820;6.494;2024-02-28T08:34:24;7.95;;;6.32;;
46308;SDS011;32037;50.820;6.494;2024-02-28T08:36:55;10.32;;;6.63;;
46308;SDS011;32037;50.820;6.494;2024-02-28T08:39:25;8.55;;;6.05;;
46308;SDS011;32037;50.820;6.494;2024-02-28T08:41:53;7.05;;;5.60;;
46308;SDS011;32037;50.820;6.494;2024-02-28T08:44:23;9.38;;;7.00;;
46308;SDS011;32037;50.820;6.494;2024-02-28T08:46:51;6.97;;;5.80;;
46308;SDS011;32037;50.820;6.494;2024-02-28T08:49:20;7.90;;;5.47;;
46308;SDS011;32037;50.820;6.494;2024-02-28T08:51:52;8.90;;;6.32;;
46308;SDS011;32037;50.820;6.494;2024-02-28T08:54:20;8.65;;;6.70;;
46308;SDS011;32037;50.820;6.494;2024-02-28T08:56:52;8.20;;;5.97;;
46308;SDS011;32037;50.820;6.494;2024-02-28T08:59:29;7.53;;;5.95;;
46308;SDS011;32037;50.820;6.494;2024-02-28T09:01:59;8.32;;;6.53;;
46308;SDS011;32037;50.820;6.494;2024-02-28T09:04:29;8.93;;;6.38;;
46308;SDS011;32037;50.820;6.494;2024-02-28T09:06:58;9.05;;;6.53;;
46308;SDS011;32037;50.820;6.494;2024-02-28T09:09:26;8.93;;;6.43;;
46308;SDS011;32037;50.820;6.494;2024-02-28T09:11:59;7.07;;;5.53;;
46308;SDS011;32037;50.820;6.494;2024-02-28T09:14:29;8.23;;;6.00;;
46308;SDS011;32037;50.820;6.494;2024-02-28T09:16:58;7.50;;;6.32;;
46308;SDS011;32037;50.820;6.494;2024-02-28T09:19:31;8.38;;;6.05;;
46308;SDS011;32037;50.820;6.494;2024-02-28T09:21:59;8.45;;;6.05;;
46308;SDS011;32037;50.820;6.494;2024-02-28T09:24:28;9.18;;;5.88;;
46308;SDS011;32037;50.820;6.494;2024-02-28T09:26:58;8.10;;;6.38;;
46308;SDS011;32037;50.820;6.494;2024-02-28T09:29:29;8.50;;;6.03;;
46308;SDS011;32037;50.820;6.494;2024-02-28T09:31:57;8.13;;;5.80;;
46308;SDS011;32037;50.820;6.494;2024-02-28T09:34:25;7.55;;;6.03;;
46308;SDS011;32037;50.820;6.494;2024-02-28T09:36:55;7.50;;;6.13;;
46308;SDS011;32037;50.820;6.494;2024-02-28T09:39:24;8.60;;;5.50;;
46308;SDS011;32037;50.820;6.494;2024-02-28T09:41:52;7.10;;;5.75;;
46308;SDS011;32037;50.820;6.494;2024-02-28T09:44:24;8.63;;;6.22;;
46308;SDS011;32037;50.820;6.494;2024-02-28T09:46:54;10.00;;;5.65;;
46308;SDS011;32037;50.820;6.494;2024-02-28T09:49:23;8.40;;;5.68;;
46308;SDS011;32037;50.820;6.494;2024-02-28T09:51:55;7.70;;;6.00;;
46308;SDS011;32037;50.820;6.494;2024-02-28T09:54:26;7.50;;;5.22;;
46308;SDS011;32037;50.820;6.494;2024-02-28T09:56:55;8.30;;;6.57;;
46308;SDS011;32037;50.820;6.494;2024-02-28T09:59:25;7.40;;;5.70;;
46308;SDS011;32037;50.820;6.494;2024-02-28T10:02:09;7.80;;;4.85;;
46308;SDS011;32037;50.820;6.494;2024-02-28T10:04:38;8.40;;;5.90;;
46308;SDS011;32037;50.820;6.494;2024-02-28T10:07:12;7.45;;;5.57;;
46308;SDS011;32037;50.820;6.494;2024-02-28T10:09:40;7.80;;;5.55;;
46308;SDS011;32037;50.820;6.494;2024-02-28T10:12:10;9.90;;;6.78;;
46308;SDS011;32037;50.820;6.494;2024-02-28T10:14:39;7.55;;;5.40;;
46308;SDS011;32037;50.820;6.494;2024-02-28T10:17:07;7.03;;;6.15;;
46308;SDS011;32037;50.820;6.494;2024-02-28T10:19:35;9.25;;;6.18;;
46308;SDS011;32037;50.820;6.494;2024-02-28T10:22:06;9.98;;;5.95;;
46308;SDS011;32037;50.820;6.494;2024-02-28T10:24:35;9.48;;;6.32;;
46308;SDS011;32037;50.820;6.494;2024-02-28T10:27:05;7.80;;;6.13;;
46308;SDS011;32037;50.820;6.494;2024-02-28T10:29:34;8.10;;;5.65;;
46308;SDS011;32037;50.820;6.494;2024-02-28T10:32:05;6.05;;;4.80;;
46308;SDS011;32037;50.820;6.494;2024-02-28T10:34:36;9.60;;;6.75;;
46308;SDS011;32037;50.820;6.494;2024-02-28T10:37:05;8.50;;;6.15;;
46308;SDS011;32037;50.820;6.494;2024-02-28T10:39:34;8.07;;;5.30;;
46308;SDS011;32037;50.820;6.494;2024-02-28T10:42:05;7.10;;;5.38;;
46308;SDS011;32037;50.820;6.494;2024-02-28T10:44:35;8.32;;;5.70;;
46308;SDS011;32037;50.820;6.494;2024-02-28T10:47:05;7.25;;;6.00;;
46308;SDS011;32037;50.820;6.494;2024-02-28T10:49:41;9.77;;;6.57;;
46308;SDS011;32037;50.820;6.494;2024-02-28T10:52:10;7.18;;;5.80;;
46308;SDS011;32037;50.820;6.494;2024-02-28T10:54:41;7.63;;;5.88;;
46308;SDS011;32037;50.820;6.494;2024-02-28T10:57:10;10.13;;;5.97;;
46308;SDS011;32037;50.820;6.494;2024-02-28T10:59:40;7.45;;;5.68;;
46308;SDS011;32037;50.820;6.494;2024-02-28T11:02:13;11.38;;;7.43;;
46308;SDS011;32037;50.820;6.494;2024-02-28T11:04:44;7.95;;;5.53;;
46308;SDS011;32037;50.820;6.494;2024-02-28T11:07:18;9.85;;;6.30;;
46308;SDS011;32037;50.820;6.494;2024-02-28T11:09:53;10.25;;;5.78;;
46308;SDS011;32037;50.820;6.494;2024-02-28T11:12:25;8.30;;;5.85;;
46308;SDS011;32037;50.820;6.494;2024-02-28T11:14:56;8.20;;;5.78;;
46308;SDS011;32037;50.820;6.494;2024-02-28T11:17:28;8.15;;;6.28;;
46308;SDS011;32037;50.820;6.494;2024-02-28T11:19:59;7.78;;;5.45;;
46308;SDS011;32037;50.820;6.494;2024-02-28T11:22:29;7.65;;;5.50;;
46308;SDS011;32037;50.820;6.494;2024-02-28T11:25:03;7.25;;;5.95;;
46308;SDS011;32037;50.820;6.494;2024-02-28T11:27:31;6.25;;;4.95;;
46308;SDS011;32037;50.820;6.494;2024-02-28T11:29:59;7.00;;;5.05;;
46308;SDS011;32037;50.820;6.494;2024-02-28T11:32:29;6.95;;;5.22;;
46308;SDS011;32037;50.820;6.494;2024-02-28T11:35:00;8.02;;;6.30;;
46308;SDS011;32037;50.820;6.494;2024-02-28T11:37:29;6.80;;;5.40;;
46308;SDS011;32037;50.820;6.494;2024-02-28T11:39:59;10.10;;;7.40;;
46308;SDS011;32037;50.820;6.494;2024-02-28T11:42:29;12.90;;;8.23;;
46308;SDS011;32037;50.820;6.494;2024-02-28T11:44:58;9.80;;;6.75;;
46308;SDS011;32037;50.820;6.494;2024-02-28T11:47:28;10.82;;;6.55;;
46308;SDS011;32037;50.820;6.494;2024-02-28T11:49:59;8.60;;;5.65;;
46308;SDS011;32037;50.820;6.494;2024-02-28T11:52:30;10.07;;;6.57;;
46308;SDS011;32037;50.820;6.494;2024-02-28T11:54:59;9.30;;;6.50;;
46308;SDS011;32037;50.820;6.494;2024-02-28T11:57:30;9.93;;;6.68;;
46308;SDS011;32037;50.820;6.494;2024-02-28T12:00:02;11.00;;;6.32;;
46308;SDS011;32037;50.820;6.494;2024-02-28T12:02:33;9.80;;;6.78;;
46308;SDS011;32037;50.820;6.494;2024-02-28T12:05:04;9.27;;;6.47;;
46308;SDS011;32037;50.820;6.494;2024-02-28T12:07:34;9.00;;;5.85;;
46308;SDS011;32037;50.820;6.494;2024-02-28T12:10:06;10.63;;;6.72;;
46308;SDS011;32037;50.820;6.494;2024-02-28T12:12:38;8.23;;;6.55;;
46308;SDS011;32037;50.820;6.494;2024-02-28T12:15:07;12.80;;;8.05;;
46308;SDS011;32037;50.820;6.494;2024-02-28T12:17:37;11.52;;;7.93;;
46308;SDS011;32037;50.820;6.494;2024-02-28T12:20:06;8.80;;;6.25;;
46308;SDS011;32037;50.820;6.494;2024-02-28T12:22:36;9.60;;;6.55;;
46308;SDS011;32037;50.820;6.494;2024-02-28T12:25:05;10.70;;;7.35;;
46308;SDS011;32037;50.820;6.494;2024-02-28T12:27:35;8.38;;;6.43;;
46308;SDS011;32037;50.820;6.494;2024-02-28T12:30:06;8.77;;;6.20;;
46308;SDS011;32037;50.820;6.494;2024-02-28T12:32:37;8.38;;;6.13;;
46308;SDS011;32037;50.820;6.494;2024-02-28T12:35:06;11.63;;;6.90;;
46308;SDS011;32037;50.820;6.494;2024-02-28T12:37:35;9.05;;;6.28;;
46308;SDS011;32037;50.820;6.494;2024-02-28T12:40:06;8.15;;;5.80;;
46308;SDS011;32037;50.820;6.494;2024-02-28T12:42:38;8.88;;;6.22;;
46308;SDS011;32037;50.820;6.494;2024-02-28T12:45:09;7.78;;;5.32;;
46308;SDS011;32037;50.820;6.494;2024-02-28T12:47:38;8.65;;;5.57;;
46308;SDS011;32037;50.820;6.494;2024-02-28T12:50:08;6.97;;;5.30;;
46308;SDS011;32037;50.820;6.494;2024-02-28T12:52:40;9.10;;;6.10;;
46308;SDS011;32037;50.820;6.494;2024-02-28T12:55:10;8.68;;;5.60;;
46308;SDS011;32037;50.820;6.494;2024-02-28T12:57:40;7.32;;;5.22;;
46308;SDS011;32037;50.820;6.494;2024-02-28T13:00:10;6.00;;;4.80;;
46308;SDS011;32037;50.820;6.494;2024-02-28T13:02:40;10.70;;;7.45;;
46308;SDS011;32037;50.820;6.494;2024-02-28T13:05:10;9.67;;;7.17;;
46308;SDS011;32037;50.820;6.494;2024-02-28T13:07:40;10.75;;;6.93;;
46308;SDS011;32037;50.820;6.494;2024-02-28T13:10:09;10.52;;;7.53;;
46308;SDS011;32037;50.820;6.494;2024-02-28T13:12:37;11.88;;;7.03;;
46308;SDS011;32037;50.820;6.494;2024-02-28T13:15:10;11.68;;;7.65;;
46308;SDS011;32037;50.820;6.494;2024-02-28T13:17:40;9.57;;;6.47;;
46308;SDS011;32037;50.820;6.494;2024-02-28T13:20:09;9.57;;;6.18;;
46308;SDS011;32037;50.820;6.494;2024-02-28T13:22:38;13.02;;;8.55;;
46308;SDS011;32037;50.820;6.494;2024-02-28T13:25:07;12.18;;;7.78;;
46308;SDS011;32037;50.820;6.494;2024-02-28T13:27:36;13.68;;;9.57;;
46308;SDS011;32037;50.820;6.494;2024-02-28T13:30:07;12.98;;;9.35;;
46308;SDS011;32037;50.820;6.494;2024-02-28T13:32:37;12.60;;;8.55;;
46308;SDS011;32037;50.820;6.494;2024-02-28T13:35:05;11.23;;;7.70;;
46308;SDS011;32037;50.820;6.494;2024-02-28T13:37:35;13.98;;;9.05;;
46308;SDS011;32037;50.820;6.494;2024-02-28T13:40:07;14.73;;;8.85;;
46308;SDS011;32037;50.820;6.494;2024-02-28T13:42:40;11.80;;;8.32;;
46308;SDS011;32037;50.820;6.494;2024-02-28T13:45:10;9.50;;;7.18;;
46308;SDS011;32037;50.820;6.494;2024-02-28T13:47:39;9.98;;;7.40;;
46308;SDS011;32037;50.820;6.494;2024-02-28T13:50:10;8.77;;;6.32;;
46308;SDS011;32037;50.820;6.494;2024-02-28T13:52:40;12.07;;;7.25;;
46308;SDS011;32037;50.820;6.494;2024-02-28T13:55:08;11.95;;;7.65;;
46308;SDS011;32037;50.820;6.494;2024-02-28T13:57:36;11.45;;;6.93;;
46308;SDS011;32037;50.820;6.494;2024-02-28T14:00:06;10.18;;;6.82;;
46308;SDS011;32037;50.820;6.494;2024-02-28T14:02:40;14.38;;;7.88;;
46308;SDS011;32037;50.820;6.494;2024-02-28T14:05:09;11.13;;;7.07;;
46308;SDS011;32037;50.820;6.494;2024-02-28T14:07:38;13.10;;;6.10;;
46308;SDS011;32037;50.820;6.494;2024-02-28T14:10:08;12.10;;;7.65;;
46308;SDS011;32037;50.820;6.494;2024-02-28T14:12:39;11.80;;;7.55;;
46308;SDS011;32037;50.820;6.494;2024-02-28T14:15:07;9.38;;;6.95;;
46308;SDS011;32037;50.820;6.494;2024-02-28T14:17:41;8.05;;;6.75;;
46308;SDS011;32037;50.820;6.494;2024-02-28T14:20:10;11.52;;;7.90;;
46308;SDS011;32037;50.820;6.494;2024-02-28T14:22:40;11.90;;;7.07;;
46308;SDS011;32037;50.820;6.494;2024-02-28T14:25:10;11.13;;;7.75;;
46308;SDS011;32037;50.820;6.494;2024-02-28T14:27:41;11.18;;;7.35;;
46308;SDS011;32037;50.820;6.494;2024-02-28T14:30:11;11.38;;;7.95;;
46308;SDS011;32037;50.820;6.494;2024-02-28T14:32:42;12.70;;;8.05;;
46308;SDS011;32037;50.820;6.494;2024-02-28T14:35:10;10.90;;;7.13;;
46308;SDS011;32037;50.820;6.494;2024-02-28T14:37:40;11.40;;;8.35;;
46308;SDS011;32037;50.820;6.494;2024-02-28T14:40:10;11.32;;;7.47;;
46308;SDS011;32037;50.820;6.494;2024-02-28T14:42:40;11.43;;;7.85;;
46308;SDS011;32037;50.820;6.494;2024-02-28T14:45:10;9.15;;;6.22;;
46308;SDS011;32037;50.820;6.494;2024-02-28T14:47:42;10.45;;;6.93;;
46308;SDS011;32037;50.820;6.494;2024-02-28T14:50:11;9.95;;;7.10;;
46308;SDS011;32037;50.820;6.494;2024-02-28T14:52:40;10.52;;;6.32;;
46308;SDS011;32037;50.820;6.494;2024-02-28T14:55:10;7.35;;;5.88;;
46308;SDS011;32037;50.820;6.494;2024-02-28T14:57:39;9.20;;;6.10;;